Página principal
METAR-TAF:

METAR-TAF

Aeroportos :

Aeroporto Internacional de Benina

Bengasi, Líbia

latitude: 32-06N, longitude: 020-16E, altura: 131 m

Observação actual do tempo

O boletim foi feito há 21 horas e 19 minutos, às 00:00 UTC
Vento 5 kt de nor-nordeste
Temperatura 23°C
Humidade 83%
Pressão 1012 hPa
Visibilidade: 8000 m
Nuvens dispersasa uma altura de 2000 ft

METAR: HLLB 210000Z 02005KT 8000 SCT020 23/20 Q1012

Hora: 23:19 (21:19 UTC)

Previsão

O boletim foi feito há 28 horas e 19 minutos, às 17:00 UTC
Previsão válida de 20 às 18 UTC a 21 às 18 UTC
Vento 10 kt de norte
Visibilidade 10 km ou mais
Nuvens dispersasa uma altura de 2500 ft
Tornando-se
de 21 às 00 UTC a 21 às 02 UTC
Vento 2 kt com direcção variável
Probabilidade 40%
de 21 às 03 UTC a 21 às 06 UTC
Visibilidade: 5000 m
neblina
Tornando-se
de 21 às 10 UTC a 21 às 12 UTC
Vento 15 kt de nor-noroeste

TAF: HLLB 201700Z 2018/2118 36010KT 9999 SCT025 BECMG 2100/2102 VRB02KT PROB40 2103/2106 5000 BR BECMG 2110/2112 33015KT

Observações e previsões do tempo de mais de 4000 aeroportos (mensagens METAR e TAF).

As estações disponíveis são os pontos amarelos e vermelhos sobre o mapa.

Mova o rato sobre o mapa para ver o nome da estação.

Depois clique no ponto para visualizar as observações e previsões meteorológicas.

Para alterar o mapa : clique nos botões verdes com uma cruz preta para aumentar o zoom; no botão verde com uma pitada de zoom; ou nas setas verdes para mapas adjacentes.


METAR-TAF: